createdAt,value
2019-04-27T00:02:03.998Z,72.04
2019-04-27T00:04:55.838Z,72.07
2019-04-27T00:07:56.207Z,72.02
2019-04-27T00:10:37.464Z,72.55
2019-04-27T00:13:08.406Z,73.30
2019-04-27T00:16:09.930Z,73.61
2019-04-27T00:18:58.118Z,73.13
2019-04-27T00:21:46.993Z,72.07
2019-04-27T00:24:19.033Z,72.28
2019-04-27T00:26:49.485Z,73.09
2019-04-27T00:29:21.079Z,73.73
2019-04-27T00:31:53.397Z,73.51
2019-04-27T00:34:25.443Z,73.87
2019-04-27T00:37:11.514Z,75.05
2019-04-27T00:39:58.264Z,74.73
2019-04-27T00:42:28.716Z,73.70
2019-04-27T00:45:00.191Z,73.83
2019-04-27T00:47:30.476Z,75.11
2019-04-27T00:50:03.454Z,76.06
2019-04-27T00:52:34.826Z,76.61
2019-04-27T00:55:07.177Z,76.74
2019-04-27T00:57:58.842Z,76.36
2019-04-27T01:00:51.912Z,76.54
2019-04-27T01:03:33.207Z,76.16
2019-04-27T01:06:04.225Z,76.12
2019-04-27T01:08:34.521Z,75.79
2019-04-27T01:11:04.941Z,75.94
2019-04-27T01:13:35.318Z,75.77
2019-04-27T01:16:05.997Z,76.39
2019-04-27T01:18:36.351Z,77.00
2019-04-27T01:21:07.108Z,77.60
2019-04-27T01:23:38.505Z,77.11
2019-04-27T01:26:46.343Z,77.42
2019-04-27T01:29:19.616Z,76.90
2019-04-27T01:31:49.954Z,76.73
2019-04-27T01:34:20.225Z,76.90
2019-04-27T01:36:50.956Z,75.76
2019-04-27T01:39:21.671Z,75.27
2019-04-27T01:41:51.938Z,77.20
2019-04-27T01:44:22.888Z,77.72
2019-04-27T01:46:53.436Z,77.67
2019-04-27T01:49:23.842Z,78.70
2019-04-27T01:51:54.598Z,79.26
2019-04-27T01:54:26.613Z,79.52
2019-04-27T01:57:00.703Z,79.08
2019-04-27T01:59:30.133Z,78.94
2019-04-27T02:02:34.904Z,78.74
2019-04-27T02:05:29.024Z,78.61
2019-04-27T02:07:59.802Z,78.28
2019-04-27T02:10:31.077Z,78.77
2019-04-27T02:13:01.469Z,79.94
2019-04-27T02:15:32.255Z,80.46
2019-04-27T02:18:02.697Z,81.43
2019-04-27T02:20:33.112Z,81.11
2019-04-27T02:23:03.976Z,81.00
2019-04-27T02:25:34.294Z,80.05
2019-04-27T02:28:22.955Z,80.03
2019-04-27T02:31:11.623Z,79.83
2019-04-27T02:33:45.664Z,80.26
2019-04-27T02:36:15.941Z,80.32
2019-04-27T02:38:46.421Z,80.26
2019-04-27T02:41:16.755Z,79.50
2019-04-27T02:44:06.108Z,78.83
2019-04-27T02:46:39.514Z,79.83
2019-04-27T02:49:10.543Z,78.89
2019-04-27T02:52:00.447Z,78.10
2019-04-27T02:54:30.845Z,77.34
2019-04-27T02:57:01.155Z,77.67
2019-04-27T02:59:31.908Z,78.47
2019-04-27T03:02:19.701Z,78.40
2019-04-27T03:04:50.180Z,78.21
2019-04-27T03:07:20.803Z,80.03
2019-04-27T03:09:51.530Z,80.39
2019-04-27T03:12:24.113Z,81.10
2019-04-27T03:15:04.992Z,81.13
2019-04-27T03:17:59.571Z,81.52
2019-04-27T03:21:00.803Z,80.82
2019-04-27T03:23:31.293Z,80.09
2019-04-27T03:26:19.667Z,80.06
2019-04-27T03:28:52.346Z,80.79
2019-04-27T03:31:22.998Z,80.48
2019-04-27T03:33:58.973Z,79.43
2019-04-27T03:36:26.718Z,79.31
2019-04-27T03:39:00.029Z,78.65
2019-04-27T03:41:29.800Z,78.34
2019-04-27T03:44:00.397Z,77.86
2019-04-27T03:46:30.710Z,79.26
2019-04-27T03:49:01.704Z,81.00
2019-04-27T03:51:41.113Z,80.83
2019-04-27T03:54:22.202Z,80.71
2019-04-27T03:57:10.979Z,80.86
2019-04-27T04:00:01.790Z,81.00
2019-04-27T04:02:33.794Z,80.29
2019-04-27T04:05:05.060Z,80.18
2019-04-27T04:07:35.651Z,80.32
2019-04-27T04:10:06.588Z,79.95
2019-04-27T04:12:43.928Z,79.50
2019-04-27T04:15:23.378Z,78.82
2019-04-27T04:17:53.807Z,78.45
2019-04-27T04:20:25.528Z,79.06
2019-04-27T04:22:55.810Z,78.76
2019-04-27T04:25:26.288Z,77.97
2019-04-27T04:27:56.984Z,77.31
2019-04-27T04:30:30.025Z,76.41
2019-04-27T04:33:00.063Z,76.02
2019-04-27T04:35:33.236Z,75.29
2019-04-27T04:38:03.728Z,74.48
2019-04-27T04:40:40.225Z,74.07
2019-04-27T04:43:16.435Z,73.42
2019-04-27T04:45:54.642Z,72.85
2019-04-27T04:48:24.923Z,72.58
2019-04-27T04:50:55.665Z,72.71
2019-04-27T04:53:25.971Z,72.58
2019-04-27T04:55:56.810Z,71.81
2019-04-27T04:58:29.257Z,71.48
2019-04-27T05:00:59.697Z,70.94
2019-04-27T05:03:31.552Z,70.78
2019-04-27T05:06:01.989Z,70.49
2019-04-27T05:08:32.342Z,70.44
2019-04-27T05:11:02.933Z,70.21
2019-04-27T05:13:33.501Z,69.25
2019-04-27T05:16:03.990Z,68.08
2019-04-27T05:18:34.548Z,69.07
2019-04-27T05:21:15.687Z,69.07
2019-04-27T05:23:46.048Z,67.36
2019-04-27T05:26:16.838Z,66.68
2019-04-27T05:28:49.142Z,66.79
2019-04-27T05:31:19.614Z,67.02
2019-04-27T05:33:51.098Z,67.23
2019-04-27T05:36:21.439Z,66.85
2019-04-27T05:38:52.074Z,66.67
2019-04-27T05:41:22.524Z,65.96
2019-04-27T05:44:29.973Z,64.96
2019-04-27T05:47:31.358Z,64.54
2019-04-27T05:50:18.398Z,63.97
2019-04-27T05:52:49.662Z,63.01
2019-04-27T05:55:19.797Z,63.01
2019-04-27T05:57:50.496Z,62.90
2019-04-27T06:00:21.901Z,61.84
2019-04-27T06:02:52.321Z,61.86
2019-04-27T06:05:23.201Z,60.98
2019-04-27T06:07:53.607Z,61.00
2019-04-27T06:10:23.925Z,60.19
2019-04-27T06:12:54.312Z,61.48
2019-04-27T06:15:25.123Z,59.92
2019-04-27T06:17:55.427Z,59.83
2019-04-27T06:20:26.098Z,59.12
2019-04-27T06:22:56.787Z,58.85
2019-04-27T06:25:30.356Z,57.98
2019-04-27T06:27:59.393Z,57.98
2019-04-27T06:30:29.791Z,56.27
2019-04-27T06:33:00.354Z,56.42
2019-04-27T06:35:31.065Z,56.42
2019-04-27T06:38:01.357Z,56.41
2019-04-27T06:40:31.793Z,55.66
2019-04-27T06:43:02.177Z,55.31
2019-04-27T06:45:32.482Z,55.31
2019-04-27T06:48:02.905Z,53.74
2019-04-27T06:50:33.373Z,54.08
2019-04-27T06:53:03.669Z,53.97
2019-04-27T06:55:34.082Z,54.21
2019-04-27T06:58:04.620Z,54.24
2019-04-27T07:00:34.996Z,53.68
2019-04-27T07:03:05.883Z,52.80
2019-04-27T07:05:36.200Z,52.26
2019-04-27T07:08:06.544Z,51.13
2019-04-27T07:10:36.962Z,49.31
2019-04-27T07:13:07.227Z,49.34
2019-04-27T07:15:38.735Z,49.19
2019-04-27T07:18:09.801Z,46.79
2019-04-27T07:20:40.173Z,47.21
2019-04-27T07:23:10.464Z,47.38
2019-04-27T07:25:41.710Z,47.13
2019-04-27T07:28:12.132Z,47.40
2019-04-27T07:30:42.449Z,47.14
2019-04-27T07:33:13.082Z,46.96
2019-04-27T07:35:43.461Z,46.96
2019-04-27T07:38:14.145Z,45.95
2019-04-27T07:40:44.448Z,45.74
2019-04-27T07:43:30.831Z,45.53
2019-04-27T07:46:01.302Z,45.72
2019-04-27T07:48:31.624Z,44.72
2019-04-27T07:51:01.942Z,44.35
2019-04-27T07:53:32.371Z,44.32
2019-04-27T07:56:02.829Z,43.07
2019-04-27T07:58:33.130Z,43.55
2019-04-27T08:01:03.979Z,44.02
2019-04-27T08:03:34.781Z,43.70
2019-04-27T08:06:05.123Z,43.46
2019-04-27T08:08:35.606Z,42.43
2019-04-27T08:11:09.134Z,41.28
2019-04-27T08:13:39.489Z,42.11
2019-04-27T08:16:10.325Z,40.63
2019-04-27T08:18:40.609Z,41.51
2019-04-27T08:21:11.285Z,41.36
2019-04-27T08:23:41.947Z,41.74
2019-04-27T08:26:25.657Z,40.99
2019-04-27T08:29:18.498Z,40.08
2019-04-27T08:31:58.699Z,40.48
2019-04-27T08:34:36.552Z,40.42
2019-04-27T08:37:09.161Z,40.10
2019-04-27T08:39:39.742Z,40.37
2019-04-27T08:42:11.079Z,40.67
2019-04-27T08:44:41.984Z,39.93
2019-04-27T08:47:12.276Z,40.02
2019-04-27T08:49:42.728Z,39.56
2019-04-27T08:52:13.342Z,38.67
2019-04-27T08:54:43.707Z,38.35
2019-04-27T08:57:14.025Z,37.45
2019-04-27T08:59:44.704Z,37.47
2019-04-27T09:02:15.038Z,37.71
2019-04-27T09:04:45.363Z,37.60
2019-04-27T09:07:39.946Z,37.46
2019-04-27T09:10:16.126Z,36.52
2019-04-27T09:13:11.187Z,36.21
2019-04-27T09:15:55.382Z,35.76
2019-04-27T09:18:29.090Z,35.49
2019-04-27T09:21:01.535Z,35.18
2019-04-27T09:23:31.824Z,35.28
2019-04-27T09:26:02.105Z,34.38
2019-04-27T09:28:32.729Z,34.47
2019-04-27T09:31:03.265Z,34.11
2019-04-27T09:33:33.640Z,34.55
2019-04-27T09:36:06.013Z,34.47
2019-04-27T09:38:36.124Z,34.21
2019-04-27T09:41:07.215Z,34.07
2019-04-27T09:43:37.969Z,34.06
2019-04-27T09:46:08.302Z,33.87
2019-04-27T09:48:39.124Z,33.12
2019-04-27T09:51:09.685Z,32.10
2019-04-27T09:53:40.161Z,31.12
2019-04-27T09:56:10.859Z,30.78
2019-04-27T09:58:41.548Z,31.17
2019-04-27T10:01:11.873Z,31.33
2019-04-27T10:03:42.651Z,30.88
2019-04-27T10:06:13.330Z,30.94
2019-04-27T10:08:43.706Z,31.20
2019-04-27T10:11:14.055Z,31.75
2019-04-27T10:13:46.431Z,30.62
2019-04-27T10:16:16.843Z,30.71
2019-04-27T10:18:47.181Z,30.09
2019-04-27T10:21:17.854Z,30.30
2019-04-27T10:23:48.283Z,29.00
2019-04-27T10:26:18.561Z,29.25
2019-04-27T10:28:49.274Z,28.46
2019-04-27T10:31:20.648Z,29.12
2019-04-27T10:33:51.117Z,30.05
2019-04-27T10:36:39.745Z,30.35
2019-04-27T10:39:13.875Z,29.00
2019-04-27T10:41:46.138Z,29.95
2019-04-27T10:44:17.608Z,30.04
2019-04-27T10:46:48.142Z,29.13
2019-04-27T10:49:18.508Z,29.43
2019-04-27T10:51:49.048Z,29.03
2019-04-27T10:54:19.385Z,29.21
2019-04-27T10:56:50.064Z,30.92
2019-04-27T10:59:20.920Z,30.07
2019-04-27T11:01:51.188Z,29.59
2019-04-27T11:04:40.823Z,28.92
2019-04-27T11:07:15.874Z,29.04
2019-04-27T11:09:46.192Z,28.96
2019-04-27T11:12:17.532Z,28.58
2019-04-27T11:14:48.281Z,29.13
2019-04-27T11:17:18.570Z,28.77
2019-04-27T11:19:49.198Z,28.17
2019-04-27T11:22:19.504Z,27.97
2019-04-27T11:24:50.092Z,27.54
2019-04-27T11:27:20.782Z,27.54
2019-04-27T11:29:51.167Z,27.17
2019-04-27T11:32:21.850Z,26.25
2019-04-27T11:35:17.448Z,26.01
2019-04-27T11:37:47.907Z,25.17
2019-04-27T11:40:19.706Z,26.74
2019-04-27T11:42:50.135Z,28.39
2019-04-27T11:45:20.772Z,27.30
2019-04-27T11:47:51.182Z,25.84
2019-04-27T11:50:22.286Z,27.31
2019-04-27T11:52:52.727Z,28.92
2019-04-27T11:55:23.554Z,30.43
2019-04-27T11:57:53.905Z,31.60
2019-04-27T12:00:27.681Z,32.48
2019-04-27T12:02:58.384Z,32.14
2019-04-27T12:05:28.854Z,32.56
2019-04-27T12:07:59.178Z,33.72
2019-04-27T12:10:29.561Z,34.13
2019-04-27T12:12:59.893Z,35.44
2019-04-27T12:15:30.184Z,38.03
2019-04-27T12:18:00.860Z,39.51
2019-04-27T12:20:31.414Z,39.43
2019-04-27T12:23:01.762Z,40.18
2019-04-27T12:25:33.638Z,40.90
2019-04-27T12:28:28.031Z,40.15
2019-04-27T12:31:09.072Z,46.46
2019-04-27T12:33:39.457Z,56.12
2019-04-27T12:36:09.945Z,59.48
2019-04-27T12:38:40.668Z,61.12
2019-04-27T12:41:11.061Z,62.02
2019-04-27T12:43:41.366Z,67.55
2019-04-27T12:46:12.023Z,67.69
2019-04-27T12:48:42.768Z,69.02
2019-04-27T12:51:13.380Z,68.54
2019-04-27T12:54:03.062Z,74.24
2019-04-27T12:56:52.997Z,77.07
2019-04-27T12:59:51.535Z,78.40
2019-04-27T13:02:24.524Z,79.58
2019-04-27T13:04:56.645Z,80.60
2019-04-27T13:07:27.047Z,82.93
2019-04-27T13:09:57.525Z,83.79
2019-04-27T13:12:27.857Z,80.19
2019-04-27T13:14:58.546Z,76.71
2019-04-27T13:17:29.304Z,73.95
2019-04-27T13:20:00.674Z,73.69
2019-04-27T13:22:31.616Z,72.30
2019-04-27T13:25:02.297Z,75.37
2019-04-27T13:27:32.792Z,74.54
2019-04-27T13:30:04.920Z,72.30
2019-04-27T13:32:36.438Z,72.13
2019-04-27T13:35:07.583Z,71.79
2019-04-27T13:37:42.744Z,72.40
2019-04-27T13:40:14.581Z,73.13
2019-04-27T13:43:03.296Z,73.13
2019-04-27T13:46:05.486Z,70.57
2019-04-27T13:48:53.473Z,67.33
2019-04-27T13:51:51.900Z,65.82
2019-04-27T13:54:26.487Z,67.08
2019-04-27T13:56:56.269Z,59.54
2019-04-27T13:59:26.768Z,59.39
2019-04-27T14:01:57.548Z,58.54
2019-04-27T14:04:28.160Z,58.99
2019-04-27T14:06:59.150Z,61.63
2019-04-27T14:09:30.699Z,65.24
2019-04-27T14:12:21.186Z,67.86
2019-04-27T14:14:52.240Z,70.09
2019-04-27T14:17:22.559Z,70.06
2019-04-27T14:19:52.916Z,66.60
2019-04-27T14:22:23.594Z,67.19
2019-04-27T14:24:54.153Z,68.08
2019-04-27T14:27:27.067Z,70.70
2019-04-27T14:29:59.480Z,71.65
2019-04-27T14:32:30.211Z,71.81
2019-04-27T14:35:00.560Z,72.79
2019-04-27T14:37:31.287Z,72.60
2019-04-27T14:40:01.716Z,70.95
2019-04-27T14:42:33.288Z,69.40
2019-04-27T14:45:04.454Z,69.21
2019-04-27T14:47:35.170Z,76.40
2019-04-27T14:52:54.969Z,86.28
2019-04-27T14:55:25.282Z,85.52
2019-04-27T14:57:55.962Z,87.81
2019-04-27T15:00:26.242Z,90.98
2019-04-27T15:02:56.600Z,89.51
2019-04-27T15:05:27.237Z,89.77
2019-04-27T15:07:57.783Z,89.10
2019-04-27T15:10:32.890Z,90.18
2019-04-27T15:13:06.389Z,90.80
2019-04-27T15:15:34.731Z,93.05
2019-04-27T15:18:05.677Z,93.65
2019-04-27T15:20:41.729Z,94.61
2019-04-27T15:23:12.874Z,95.68
2019-04-27T15:25:46.782Z,97.44
2019-04-27T15:28:18.280Z,97.71
2019-04-27T15:31:23.652Z,97.80
2019-04-27T15:34:06.405Z,98.48
2019-04-27T15:37:01.812Z,99.00
2019-04-27T15:39:50.533Z,99.04
2019-04-27T15:42:29.542Z,99.89
2019-04-27T15:45:00.139Z,100.00
2019-04-27T15:47:30.446Z,99.70
2019-04-27T15:50:00.769Z,99.89
2019-04-27T15:52:33.141Z,100.00
2019-04-27T15:55:11.042Z,99.98
2019-04-27T15:57:35.677Z,100.00
2019-04-27T16:00:17.179Z,100.00
2019-04-27T16:02:44.510Z,100.00
2019-04-27T16:05:16.849Z,100.00
2019-04-27T16:07:47.905Z,100.00
2019-04-27T16:10:20.081Z,100.00
2019-04-27T16:13:05.765Z,100.00
2019-04-27T16:15:23.882Z,100.00
2019-04-27T16:17:56.070Z,100.00
2019-04-27T16:20:30.195Z,100.00
2019-04-27T16:23:03.056Z,100.00
2019-04-27T16:25:32.789Z,100.00
2019-04-27T16:28:04.635Z,98.32
2019-04-27T16:30:35.109Z,97.08
2019-04-27T16:33:06.307Z,97.26
2019-04-27T16:35:38.635Z,99.03
2019-04-27T16:38:39.938Z,100.00
2019-04-27T16:41:10.840Z,100.00
2019-04-27T16:43:41.134Z,99.72
2019-04-27T16:46:11.562Z,100.00
2019-04-27T16:48:42.135Z,99.49
2019-04-27T16:51:12.714Z,99.89
2019-04-27T16:53:43.402Z,100.00
2019-04-27T16:56:16.114Z,100.00
2019-04-27T16:58:51.070Z,100.00
2019-04-27T17:01:25.921Z,100.00
2019-04-27T17:03:56.452Z,99.96
2019-04-27T17:06:26.768Z,100.00
2019-04-27T17:09:05.043Z,100.00
2019-04-27T17:11:29.918Z,99.93
2019-04-27T17:14:15.762Z,99.72
2019-04-27T17:17:11.937Z,99.90
2019-04-27T17:19:44.386Z,100.00
2019-04-27T17:22:16.341Z,100.00
2019-04-27T17:24:49.326Z,100.00
2019-04-27T17:27:28.922Z,100.00
2019-04-27T17:29:59.551Z,99.45
2019-04-27T17:32:35.158Z,98.83
2019-04-27T17:35:14.535Z,98.35
2019-04-27T17:37:41.198Z,98.56
2019-04-27T17:40:15.368Z,97.56
2019-04-27T17:42:45.353Z,96.51
2019-04-27T17:45:16.339Z,97.66
2019-04-27T17:47:48.229Z,97.61
2019-04-27T17:50:24.944Z,97.72
2019-04-27T17:52:55.035Z,97.37
2019-04-27T17:55:25.344Z,97.46
2019-04-27T17:58:00.558Z,97.94
2019-04-27T18:00:28.387Z,97.66
2019-04-27T18:03:00.766Z,96.60
2019-04-27T18:05:31.654Z,93.64
2019-04-27T18:08:02.507Z,94.31
2019-04-27T18:10:32.797Z,92.37
2019-04-27T18:13:03.421Z,91.97
2019-04-27T18:15:33.804Z,92.46
2019-04-27T18:18:13.371Z,93.13
2019-04-27T18:20:43.665Z,92.71
2019-04-27T18:23:18.526Z,93.39
2019-04-27T18:25:54.973Z,93.79
2019-04-27T18:28:28.355Z,94.98
2019-04-27T18:31:06.821Z,95.62
2019-04-27T18:33:38.339Z,94.21
2019-04-27T18:36:13.826Z,94.39
2019-04-27T18:38:41.059Z,94.32
2019-04-27T18:41:11.940Z,92.37
2019-04-27T18:43:50.788Z,93.38
2019-04-27T18:46:19.004Z,93.51
2019-04-27T18:49:05.616Z,93.57
2019-04-27T18:52:04.353Z,93.30
2019-04-27T18:54:38.380Z,93.79
2019-04-27T18:57:05.843Z,93.64
2019-04-27T18:59:38.032Z,96.47
2019-04-27T19:02:09.032Z,96.93
2019-04-27T19:04:39.351Z,97.44
2019-04-27T19:07:09.923Z,96.61
2019-04-27T19:09:40.574Z,96.97
2019-04-27T19:12:10.864Z,96.93
2019-04-27T19:14:42.339Z,96.24
2019-04-27T19:17:13.134Z,95.83
2019-04-27T19:19:43.450Z,95.36
2019-04-27T19:22:13.742Z,95.40
2019-04-27T19:24:44.480Z,94.72
2019-04-27T19:27:32.680Z,94.65
2019-04-27T19:30:14.239Z,95.23
2019-04-27T19:32:44.947Z,95.16
2019-04-27T19:35:15.525Z,93.37
2019-04-27T19:37:46.047Z,92.20
2019-04-27T19:40:16.392Z,91.17
2019-04-27T19:42:48.506Z,90.06
2019-04-27T19:45:19.447Z,92.71
2019-04-27T19:47:50.898Z,94.19
2019-04-27T19:50:21.290Z,93.30
2019-04-27T19:52:51.893Z,94.73
2019-04-27T19:55:23.338Z,95.47
2019-04-27T19:57:53.635Z,94.13
2019-04-27T20:00:36.805Z,93.20
2019-04-27T20:03:08.767Z,93.00
2019-04-27T20:05:40.128Z,91.82
2019-04-27T20:08:15.822Z,92.85
2019-04-27T20:10:46.145Z,93.24
2019-04-27T20:13:17.601Z,93.68
2019-04-27T20:15:47.962Z,95.61
2019-04-27T20:18:18.334Z,95.87
2019-04-27T20:20:48.984Z,97.59
2019-04-27T20:23:22.231Z,98.70
2019-04-27T20:25:51.687Z,99.66
2019-04-27T20:28:23.084Z,98.79
2019-04-27T20:30:53.842Z,97.38
2019-04-27T20:33:24.166Z,99.81
2019-04-27T20:35:54.606Z,100.00
2019-04-27T20:38:25.297Z,99.75
2019-04-27T20:40:55.734Z,100.00
2019-04-27T20:43:26.349Z,100.00
2019-04-27T20:45:56.673Z,100.00
2019-04-27T20:48:27.208Z,100.00
2019-04-27T20:50:57.751Z,100.00
2019-04-27T20:53:32.447Z,100.00
2019-04-27T20:56:02.838Z,99.65
2019-04-27T20:58:33.620Z,98.87
2019-04-27T21:01:04.034Z,98.31
2019-04-27T21:03:40.973Z,97.67
2019-04-27T21:06:17.053Z,96.81
2019-04-27T21:08:47.352Z,96.69
2019-04-27T21:11:17.639Z,96.47
2019-04-27T21:13:49.079Z,95.46
2019-04-27T21:16:21.092Z,94.46
2019-04-27T21:18:53.229Z,93.31
2019-04-27T21:21:23.656Z,94.64
2019-04-27T21:23:53.960Z,94.53
2019-04-27T21:26:24.557Z,96.10
2019-04-27T21:28:55.831Z,95.40
2019-04-27T21:31:26.302Z,97.01
2019-04-27T21:33:56.923Z,96.21
2019-04-27T21:36:28.565Z,96.94
2019-04-27T21:38:58.847Z,97.18
2019-04-27T21:41:31.216Z,97.54
2019-04-27T21:44:01.610Z,97.38
2019-04-27T21:46:34.763Z,96.87
2019-04-27T21:49:04.347Z,96.39
2019-04-27T21:51:37.249Z,95.81
2019-04-27T21:54:17.320Z,94.66
2019-04-27T21:56:47.803Z,93.24
2019-04-27T21:59:18.093Z,93.71
2019-04-27T22:01:49.174Z,93.55
2019-04-27T22:04:22.405Z,93.64
2019-04-27T22:06:52.726Z,93.25
2019-04-27T22:09:23.522Z,93.17
2019-04-27T22:11:54.393Z,93.69
2019-04-27T22:14:24.720Z,94.06
2019-04-27T22:16:56.096Z,93.88
2019-04-27T22:19:26.413Z,93.64
2019-04-27T22:21:57.301Z,93.83
2019-04-27T22:24:37.037Z,92.42
2019-04-27T22:27:07.324Z,91.37
2019-04-27T22:29:38.046Z,92.33
2019-04-27T22:32:08.897Z,91.79
2019-04-27T22:34:39.187Z,90.68
2019-04-27T22:37:11.121Z,91.07
2019-04-27T22:40:12.021Z,92.48
2019-04-27T22:43:01.723Z,91.92
2019-04-27T22:45:33.625Z,92.37
2019-04-27T22:48:04.048Z,92.15
2019-04-27T22:50:34.352Z,93.83
2019-04-27T22:53:08.241Z,92.04
2019-04-27T22:55:41.232Z,92.34
2019-04-27T22:58:17.687Z,92.45
2019-04-27T23:01:08.327Z,92.29
2019-04-27T23:03:39.120Z,92.03
2019-04-27T23:06:11.319Z,92.27
2019-04-27T23:08:41.869Z,91.55
2019-04-27T23:11:12.144Z,90.76
2019-04-27T23:13:42.430Z,90.32
2019-04-27T23:16:14.463Z,90.32
2019-04-27T23:18:44.836Z,90.00
2019-04-27T23:21:15.126Z,90.83
2019-04-27T23:23:45.813Z,90.69
2019-04-27T23:26:16.377Z,91.67
2019-04-27T23:28:46.656Z,91.40
2019-04-27T23:31:24.492Z,90.82
2019-04-27T23:33:55.292Z,90.13
2019-04-27T23:36:25.617Z,91.72
2019-04-27T23:38:56.070Z,93.81
2019-04-27T23:41:26.620Z,94.79
2019-04-27T23:43:57.014Z,93.38
2019-04-27T23:46:27.360Z,94.33
2019-04-27T23:48:57.742Z,93.51
2019-04-27T23:51:43.528Z,90.98
2019-04-27T23:54:13.821Z,93.64
2019-04-27T23:56:44.546Z,94.34
2019-04-27T23:59:24.655Z,93.34
